createdAt,value
2023-01-08T00:01:16.320Z,4.51
2023-01-08T00:03:42.916Z,4.46
2023-01-08T00:06:13.124Z,4.43
2023-01-08T00:08:39.815Z,4.47
2023-01-08T00:11:06.544Z,4.48
2023-01-08T00:13:33.223Z,4.51
2023-01-08T00:16:04.746Z,4.50
2023-01-08T00:18:31.231Z,4.54
2023-01-08T00:20:57.864Z,4.57
2023-01-08T00:23:24.381Z,4.59
2023-01-08T00:25:50.932Z,4.60
2023-01-08T00:28:17.785Z,4.58
2023-01-08T00:30:44.244Z,4.62
2023-01-08T00:33:11.535Z,4.61
2023-01-08T00:35:39.118Z,4.60
2023-01-08T00:38:05.853Z,4.57
2023-01-08T00:40:34.667Z,4.56
2023-01-08T00:43:01.308Z,4.58
2023-01-08T00:45:27.860Z,4.58
2023-01-08T00:47:54.354Z,4.58
2023-01-08T00:50:20.762Z,4.61
2023-01-08T00:52:47.200Z,4.63
2023-01-08T00:55:13.607Z,4.65
2023-01-08T00:57:40.669Z,4.67
2023-01-08T01:00:09.456Z,4.67
2023-01-08T01:02:37.230Z,4.67
2023-01-08T01:05:04.983Z,4.70
2023-01-08T01:07:33.409Z,4.73
2023-01-08T01:10:00.097Z,4.76
2023-01-08T01:12:26.721Z,4.78
2023-01-08T01:14:53.138Z,4.84
2023-01-08T01:17:19.698Z,4.82
2023-01-08T01:19:46.120Z,4.85
2023-01-08T01:22:12.508Z,4.92
2023-01-08T01:24:38.974Z,4.96
2023-01-08T01:27:05.650Z,4.97
2023-01-08T01:29:32.138Z,5.00
2023-01-08T01:31:58.613Z,5.02
2023-01-08T01:34:25.012Z,5.06
2023-01-08T01:36:51.422Z,5.07
2023-01-08T01:39:19.775Z,5.08
2023-01-08T01:41:47.236Z,5.03
2023-01-08T01:44:37.560Z,5.03
2023-01-08T01:47:13.030Z,5.02
2023-01-08T01:49:44.104Z,4.99
2023-01-08T01:52:11.615Z,4.98
2023-01-08T01:54:38.097Z,5.00
2023-01-08T01:57:07.218Z,4.99
2023-01-08T01:59:33.684Z,4.97
2023-01-08T02:02:00.383Z,4.92
2023-01-08T02:04:27.016Z,4.92
2023-01-08T02:07:15.362Z,4.89
2023-01-08T02:09:50.763Z,4.89
2023-01-08T02:12:29.111Z,4.91
2023-01-08T02:15:15.767Z,4.92
2023-01-08T02:17:46.019Z,4.92
2023-01-08T02:20:47.984Z,4.88
2023-01-08T02:23:26.248Z,4.91
2023-01-08T02:26:06.271Z,4.93
2023-01-08T02:28:36.808Z,4.96
2023-01-08T02:31:04.510Z,4.99
2023-01-08T02:33:43.255Z,5.01
2023-01-08T02:36:25.565Z,5.03
2023-01-08T02:39:10.775Z,5.04
2023-01-08T02:41:55.530Z,5.04
2023-01-08T02:44:30.586Z,5.02
2023-01-08T02:46:59.297Z,5.01
2023-01-08T02:49:31.711Z,5.04
2023-01-08T02:52:01.909Z,5.03
2023-01-08T02:54:32.537Z,5.07
2023-01-08T02:57:19.381Z,5.11
2023-01-08T02:59:48.977Z,5.11
2023-01-08T03:02:16.718Z,5.08
2023-01-08T03:04:52.336Z,5.07
2023-01-08T03:07:19.060Z,4.95
2023-01-08T03:09:45.934Z,4.76
2023-01-08T03:12:23.895Z,4.65
2023-01-08T03:15:02.933Z,4.51
2023-01-08T03:17:36.799Z,4.38
2023-01-08T03:20:10.074Z,4.37
2023-01-08T03:22:40.666Z,4.26
2023-01-08T03:25:08.796Z,4.18
2023-01-08T03:27:40.617Z,4.06
2023-01-08T03:30:09.987Z,4.07
2023-01-08T03:32:38.708Z,4.09
2023-01-08T03:35:07.125Z,4.03
2023-01-08T03:37:38.841Z,4.06
2023-01-08T03:40:13.815Z,4.10
2023-01-08T03:42:40.436Z,4.11
2023-01-08T03:45:07.476Z,4.11
2023-01-08T03:47:36.463Z,4.13
2023-01-08T03:50:08.206Z,4.20
2023-01-08T03:52:34.623Z,4.28
2023-01-08T03:55:01.137Z,4.31
2023-01-08T03:57:27.669Z,4.33
2023-01-08T03:59:54.125Z,4.35
2023-01-08T04:02:20.644Z,4.37
2023-01-08T04:04:47.637Z,4.40
2023-01-08T04:07:14.078Z,4.43
2023-01-08T04:09:40.664Z,4.44
2023-01-08T04:12:07.141Z,4.46
2023-01-08T04:14:33.594Z,4.46
2023-01-08T04:17:00.052Z,4.45
2023-01-08T04:19:26.517Z,4.46
2023-01-08T04:21:53.473Z,4.45
2023-01-08T04:24:20.528Z,4.40
2023-01-08T04:26:47.066Z,4.50
2023-01-08T04:29:14.252Z,4.52
2023-01-08T04:31:40.957Z,4.54
2023-01-08T04:34:07.394Z,4.51
2023-01-08T04:36:33.853Z,4.53
2023-01-08T04:39:00.315Z,4.52
2023-01-08T04:41:26.716Z,4.56
2023-01-08T04:43:53.135Z,4.58
2023-01-08T04:46:19.587Z,4.62
2023-01-08T04:48:46.058Z,4.60
2023-01-08T04:51:12.495Z,4.54
2023-01-08T04:53:41.188Z,4.58
2023-01-08T04:56:09.801Z,4.56
2023-01-08T04:58:37.776Z,4.59
2023-01-08T05:01:20.768Z,4.60
2023-01-08T05:03:47.992Z,4.62
2023-01-08T05:06:14.554Z,4.59
2023-01-08T05:08:41.015Z,4.64
2023-01-08T05:11:07.406Z,4.66
2023-01-08T05:13:33.876Z,4.68
2023-01-08T05:16:01.050Z,4.70
2023-01-08T05:18:29.011Z,4.74
2023-01-08T05:20:59.469Z,4.76
2023-01-08T05:23:25.901Z,4.78
2023-01-08T05:25:52.325Z,4.82
2023-01-08T05:28:18.736Z,4.86
2023-01-08T05:30:45.180Z,4.92
2023-01-08T05:33:11.625Z,4.96
2023-01-08T05:35:39.522Z,5.03
2023-01-08T05:38:06.158Z,5.06
2023-01-08T05:40:32.571Z,5.06
2023-01-08T05:43:00.398Z,5.06
2023-01-08T05:45:27.180Z,5.10
2023-01-08T05:47:54.511Z,5.10
2023-01-08T05:50:20.974Z,5.06
2023-01-08T05:52:47.416Z,5.10
2023-01-08T05:55:13.884Z,5.06
2023-01-08T05:57:40.274Z,5.11
2023-01-08T06:00:08.630Z,5.12
2023-01-08T06:02:38.097Z,5.07
2023-01-08T06:05:05.257Z,5.15
2023-01-08T06:07:31.768Z,5.11
2023-01-08T06:09:58.150Z,5.14
2023-01-08T06:12:24.549Z,5.13
2023-01-08T06:14:50.969Z,5.13
2023-01-08T06:17:17.379Z,5.13
2023-01-08T06:19:43.799Z,5.13
2023-01-08T06:22:10.179Z,5.14
2023-01-08T06:24:36.569Z,5.16
2023-01-08T06:27:03.060Z,5.16
2023-01-08T06:29:29.451Z,5.15
2023-01-08T06:31:56.123Z,5.14
2023-01-08T06:34:22.566Z,5.14
2023-01-08T06:36:49.326Z,5.16
2023-01-08T06:39:15.799Z,5.18
2023-01-08T06:41:43.156Z,5.18
2023-01-08T06:44:09.717Z,5.18
2023-01-08T06:46:40.158Z,5.17
2023-01-08T06:49:07.276Z,5.15
2023-01-08T06:51:33.894Z,5.15
2023-01-08T06:54:00.372Z,5.15
2023-01-08T06:56:26.828Z,5.14
2023-01-08T06:58:53.281Z,5.13
2023-01-08T07:01:20.030Z,5.09
2023-01-08T07:03:46.666Z,5.03
2023-01-08T07:06:16.375Z,5.00
2023-01-08T07:08:43.815Z,4.99
2023-01-08T07:11:10.309Z,5.01
2023-01-08T07:13:36.797Z,5.04
2023-01-08T07:16:10.315Z,5.08
2023-01-08T07:18:36.947Z,5.11
2023-01-08T07:21:04.812Z,5.12
2023-01-08T07:23:31.855Z,5.11
2023-01-08T07:26:02.300Z,5.09
2023-01-08T07:28:29.447Z,5.07
2023-01-08T07:30:56.030Z,5.06
2023-01-08T07:33:22.769Z,5.04
2023-01-08T07:35:56.376Z,4.98
2023-01-08T07:38:23.243Z,5.01
2023-01-08T07:40:49.863Z,5.04
2023-01-08T07:43:16.296Z,5.06
2023-01-08T07:45:42.815Z,5.05
2023-01-08T07:48:15.796Z,5.07
2023-01-08T07:50:45.521Z,5.06
2023-01-08T07:53:13.529Z,5.11
2023-01-08T07:55:40.040Z,5.13
2023-01-08T07:58:11.466Z,5.13
2023-01-08T08:00:38.116Z,5.15
2023-01-08T08:03:06.217Z,5.09
2023-01-08T08:05:33.647Z,5.07
2023-01-08T08:08:00.113Z,5.04
2023-01-08T08:10:26.748Z,5.05
2023-01-08T08:12:53.145Z,5.04
2023-01-08T08:15:19.544Z,5.06
2023-01-08T08:17:47.422Z,5.06
2023-01-08T08:20:14.124Z,5.15
2023-01-08T08:22:40.703Z,5.19
2023-01-08T08:25:07.546Z,5.26
2023-01-08T08:27:33.985Z,5.26
2023-01-08T08:30:00.396Z,5.29
2023-01-08T08:32:26.883Z,5.33
2023-01-08T08:34:53.332Z,5.41
2023-01-08T08:37:19.746Z,5.53
2023-01-08T08:39:46.217Z,5.60
2023-01-08T08:42:12.657Z,5.65
2023-01-08T08:44:40.321Z,5.77
2023-01-08T08:47:09.293Z,5.78
2023-01-08T08:49:36.497Z,5.88
2023-01-08T08:52:04.207Z,5.93
2023-01-08T08:54:30.710Z,5.89
2023-01-08T08:56:57.181Z,5.99
2023-01-08T08:59:23.664Z,6.01
2023-01-08T09:01:50.242Z,6.06
2023-01-08T09:04:16.774Z,6.14
2023-01-08T09:06:43.209Z,6.22
2023-01-08T09:09:09.696Z,6.28
2023-01-08T09:11:36.240Z,6.36
2023-01-08T09:14:02.655Z,6.43
2023-01-08T09:16:29.134Z,6.50
2023-01-08T09:18:56.331Z,6.58
2023-01-08T09:21:22.716Z,6.67
2023-01-08T09:23:49.683Z,6.75
2023-01-08T09:26:16.207Z,6.78
2023-01-08T09:28:42.612Z,6.84
2023-01-08T09:31:09.091Z,6.84
2023-01-08T09:33:35.574Z,6.90
2023-01-08T09:36:01.993Z,6.95
2023-01-08T09:38:30.019Z,6.98
2023-01-08T09:40:58.432Z,7.00
2023-01-08T09:43:29.176Z,7.00
2023-01-08T09:45:58.201Z,7.09
2023-01-08T09:48:29.599Z,7.14
2023-01-08T09:50:56.732Z,7.17
2023-01-08T09:53:24.307Z,7.21
2023-01-08T09:56:09.228Z,7.28
2023-01-08T09:58:45.221Z,7.31
2023-01-08T10:01:15.718Z,7.35
2023-01-08T10:03:53.632Z,7.32
2023-01-08T10:06:20.034Z,7.35
2023-01-08T10:11:18.875Z,7.33
2023-01-08T10:13:56.217Z,7.32
2023-01-08T10:16:28.863Z,7.31
2023-01-08T10:18:55.361Z,7.32
2023-01-08T10:21:29.351Z,7.29
2023-01-08T10:23:55.811Z,7.31
2023-01-08T10:26:30.647Z,7.31
2023-01-08T10:29:11.371Z,7.34
2023-01-08T10:31:52.993Z,7.36
2023-01-08T10:34:39.552Z,7.33
2023-01-08T10:37:26.782Z,7.38
2023-01-08T10:39:56.130Z,7.36
2023-01-08T10:42:24.140Z,7.40
2023-01-08T10:45:06.922Z,7.38
2023-01-08T10:47:36.345Z,7.42
2023-01-08T10:50:05.546Z,7.43
2023-01-08T10:52:34.324Z,7.44
2023-01-08T10:55:22.797Z,7.46
2023-01-08T10:57:58.277Z,7.49
2023-01-08T11:00:33.479Z,7.51
2023-01-08T11:03:06.920Z,7.50
2023-01-08T11:05:39.111Z,7.58
2023-01-08T11:08:08.203Z,7.61
2023-01-08T11:10:36.476Z,7.63
2023-01-08T11:13:08.352Z,7.69
2023-01-08T11:15:38.895Z,7.72
2023-01-08T11:18:21.612Z,7.72
2023-01-08T11:20:49.178Z,7.77
2023-01-08T11:23:17.500Z,7.78
2023-01-08T11:25:51.051Z,7.81
2023-01-08T11:28:26.901Z,7.82
2023-01-08T11:31:01.131Z,7.86
2023-01-08T11:33:32.767Z,7.90
2023-01-08T11:36:08.008Z,7.94
2023-01-08T11:38:34.479Z,7.97
2023-01-08T11:41:44.684Z,8.01
2023-01-08T11:44:52.395Z,8.02
2023-01-08T11:47:36.424Z,8.03
2023-01-08T11:50:18.987Z,8.08
2023-01-08T11:53:00.755Z,8.11
2023-01-08T11:55:42.690Z,8.11
2023-01-08T11:58:26.334Z,8.11
2023-01-08T12:00:58.763Z,8.12
2023-01-08T12:03:31.161Z,8.14
2023-01-08T12:06:04.879Z,8.14
2023-01-08T12:08:49.891Z,8.17
2023-01-08T12:11:22.185Z,8.18
2023-01-08T12:14:10.211Z,8.16
2023-01-08T12:16:48.699Z,8.18
2023-01-08T12:19:52.801Z,8.16
2023-01-08T12:22:28.195Z,8.19
2023-01-08T12:25:36.331Z,8.20
2023-01-08T12:28:15.250Z,8.22
2023-01-08T12:30:51.613Z,8.23
2023-01-08T12:33:35.355Z,8.25
2023-01-08T12:36:08.560Z,8.24
2023-01-08T12:38:43.277Z,8.35
2023-01-08T12:41:19.448Z,8.36
2023-01-08T12:43:59.358Z,8.40
2023-01-08T12:46:29.385Z,8.45
2023-01-08T12:48:56.639Z,8.45
2023-01-08T12:51:38.775Z,8.48
2023-01-08T12:54:23.680Z,8.52
2023-01-08T12:57:07.743Z,8.53
2023-01-08T12:59:59.159Z,8.56
2023-01-08T13:02:56.658Z,8.56
2023-01-08T13:05:23.091Z,8.59
2023-01-08T13:07:54.104Z,8.61
2023-01-08T13:10:32.289Z,8.65
2023-01-08T13:13:01.727Z,8.64
2023-01-08T13:15:30.552Z,8.69
2023-01-08T13:18:02.951Z,8.71
2023-01-08T13:20:31.937Z,8.68
2023-01-08T13:23:01.099Z,8.72
2023-01-08T13:25:33.871Z,8.72
2023-01-08T13:28:40.498Z,8.72
2023-01-08T13:31:28.028Z,8.66
2023-01-08T13:33:55.591Z,8.66
2023-01-08T13:36:26.037Z,8.65
2023-01-08T13:39:10.507Z,8.63
2023-01-08T13:41:42.378Z,8.64
2023-01-08T13:44:27.843Z,8.62
2023-01-08T13:46:56.696Z,8.66
2023-01-08T13:49:31.774Z,8.66
2023-01-08T13:51:58.210Z,8.65
2023-01-08T13:54:38.780Z,8.66
2023-01-08T13:57:12.613Z,8.62
2023-01-08T13:59:43.077Z,8.66
2023-01-08T14:02:28.196Z,8.70
2023-01-08T14:04:55.169Z,8.71
2023-01-08T14:07:23.522Z,8.72
2023-01-08T14:09:50.731Z,8.73
2023-01-08T14:12:20.491Z,8.70
2023-01-08T14:14:59.109Z,8.71
2023-01-08T14:17:31.348Z,8.73
2023-01-08T14:19:58.572Z,8.73
2023-01-08T14:22:31.978Z,8.71
2023-01-08T14:25:03.556Z,8.69
2023-01-08T14:27:31.476Z,8.65
2023-01-08T14:29:58.783Z,8.59
2023-01-08T14:32:29.233Z,8.57
2023-01-08T14:34:58.959Z,8.50
2023-01-08T14:37:25.605Z,8.43
2023-01-08T14:39:54.713Z,8.38
2023-01-08T14:42:41.084Z,8.32
2023-01-08T14:45:16.323Z,8.22
2023-01-08T14:47:49.293Z,8.11
2023-01-08T14:50:23.544Z,8.14
2023-01-08T14:52:51.613Z,8.10
2023-01-08T14:55:20.095Z,8.05
2023-01-08T14:57:48.469Z,7.99
2023-01-08T15:00:21.319Z,7.88
2023-01-08T15:02:49.688Z,7.87
2023-01-08T15:05:21.344Z,7.83
2023-01-08T15:07:56.720Z,7.77
2023-01-08T15:10:52.300Z,7.69
2023-01-08T15:13:23.603Z,7.60
2023-01-08T15:15:57.129Z,7.51
2023-01-08T15:18:23.870Z,7.47
2023-01-08T15:20:51.044Z,7.44
2023-01-08T15:23:27.079Z,7.41
2023-01-08T15:25:55.143Z,7.40
2023-01-08T15:28:21.833Z,7.32
2023-01-08T15:30:49.329Z,7.34
2023-01-08T15:33:21.789Z,7.31
2023-01-08T15:35:49.739Z,7.27
2023-01-08T15:38:17.203Z,7.26
2023-01-08T15:40:44.690Z,7.25
2023-01-08T15:43:14.007Z,7.23
2023-01-08T15:45:43.221Z,7.16
2023-01-08T15:48:10.590Z,7.17
2023-01-08T15:50:42.940Z,7.18
2023-01-08T15:53:22.265Z,7.14
2023-01-08T15:55:48.812Z,7.09
2023-01-08T15:58:16.103Z,7.07
2023-01-08T16:00:44.260Z,7.06
2023-01-08T16:03:14.933Z,7.04
2023-01-08T16:05:41.714Z,7.02
2023-01-08T16:08:08.181Z,6.99
2023-01-08T16:10:34.789Z,6.96
2023-01-08T16:13:01.911Z,6.95
2023-01-08T16:15:30.730Z,6.91
2023-01-08T16:17:58.100Z,6.88
2023-01-08T16:20:24.766Z,6.90
2023-01-08T16:22:51.234Z,6.88
2023-01-08T16:25:17.799Z,6.82
2023-01-08T16:27:44.292Z,6.81
2023-01-08T16:30:15.054Z,6.77
2023-01-08T16:32:41.795Z,6.75
2023-01-08T16:35:08.891Z,6.71
2023-01-08T16:37:35.294Z,6.71
2023-01-08T16:40:01.759Z,6.71
2023-01-08T16:42:28.209Z,6.71
2023-01-08T16:44:54.623Z,6.71
2023-01-08T16:47:21.029Z,6.70
2023-01-08T16:49:50.233Z,6.72
2023-01-08T16:52:17.531Z,6.75
2023-01-08T16:54:44.795Z,6.77
2023-01-08T16:57:11.364Z,6.76
2023-01-08T16:59:37.779Z,6.79
2023-01-08T17:02:04.858Z,6.80
2023-01-08T17:04:32.078Z,6.78
2023-01-08T17:06:58.601Z,6.79
2023-01-08T17:09:25.651Z,6.78
2023-01-08T17:11:52.161Z,6.77
2023-01-08T17:14:18.754Z,6.75
2023-01-08T17:16:45.492Z,6.70
2023-01-08T17:19:12.889Z,6.66
2023-01-08T17:21:40.220Z,6.61
2023-01-08T17:24:07.348Z,6.56
2023-01-08T17:26:33.874Z,6.52
2023-01-08T17:29:00.430Z,6.51
2023-01-08T17:31:26.936Z,6.51
2023-01-08T17:33:54.476Z,6.51
2023-01-08T17:36:26.610Z,6.50
2023-01-08T17:38:54.327Z,6.50
2023-01-08T17:41:40.625Z,6.48
2023-01-08T17:44:09.223Z,6.52
2023-01-08T17:46:38.058Z,6.50
2023-01-08T17:49:05.437Z,6.52
2023-01-08T17:51:33.324Z,6.56
2023-01-08T17:54:00.258Z,6.53
2023-01-08T17:56:27.156Z,6.57
2023-01-08T17:58:53.687Z,6.58
2023-01-08T18:01:20.558Z,6.58
2023-01-08T18:03:47.139Z,6.61
2023-01-08T18:06:14.200Z,6.64
2023-01-08T18:08:41.416Z,6.66
2023-01-08T18:11:09.872Z,6.67
2023-01-08T18:13:37.338Z,6.69
2023-01-08T18:16:14.611Z,6.72
2023-01-08T18:18:41.275Z,6.68
2023-01-08T18:21:08.442Z,6.75
2023-01-08T18:23:34.950Z,6.76
2023-01-08T18:26:12.064Z,6.77
2023-01-08T18:28:38.774Z,6.81
2023-01-08T18:31:06.913Z,6.84
2023-01-08T18:33:33.480Z,6.86
2023-01-08T18:36:02.983Z,6.86
2023-01-08T18:38:29.423Z,6.89
2023-01-08T18:40:58.291Z,6.89
2023-01-08T18:43:25.593Z,6.89
2023-01-08T18:45:52.485Z,6.80
2023-01-08T18:48:18.885Z,6.85
2023-01-08T18:50:46.381Z,6.82
2023-01-08T18:53:12.795Z,6.79
2023-01-08T18:55:39.206Z,6.76
2023-01-08T18:58:05.760Z,6.73
2023-01-08T19:00:32.195Z,6.70
2023-01-08T19:02:58.684Z,6.66
2023-01-08T19:05:25.735Z,6.63
2023-01-08T19:07:52.185Z,6.58
2023-01-08T19:10:18.795Z,6.52
2023-01-08T19:12:45.551Z,6.47
2023-01-08T19:15:12.205Z,6.46
2023-01-08T19:17:39.067Z,6.46
2023-01-08T19:20:06.070Z,6.43
2023-01-08T19:22:32.863Z,6.40
2023-01-08T19:24:59.511Z,6.46
2023-01-08T19:27:26.554Z,6.41
2023-01-08T19:29:53.124Z,6.39
2023-01-08T19:32:19.624Z,6.36
2023-01-08T19:34:46.993Z,6.33
2023-01-08T19:37:14.836Z,6.32
2023-01-08T19:39:41.385Z,6.35
2023-01-08T19:42:29.099Z,6.35
2023-01-08T19:44:56.255Z,6.35
2023-01-08T19:47:23.034Z,6.32
2023-01-08T19:49:49.473Z,6.36
2023-01-08T19:52:16.651Z,6.35
2023-01-08T19:54:43.476Z,6.35
2023-01-08T19:57:10.012Z,6.33
2023-01-08T19:59:36.439Z,6.38
2023-01-08T20:02:03.138Z,6.40
2023-01-08T20:04:30.946Z,6.42
2023-01-08T20:06:58.191Z,6.44
2023-01-08T20:09:24.658Z,6.44
2023-01-08T20:11:51.095Z,6.51
2023-01-08T20:14:19.857Z,6.48
2023-01-08T20:16:47.233Z,6.45
2023-01-08T20:19:13.637Z,6.46
2023-01-08T20:21:40.490Z,6.43
2023-01-08T20:24:11.064Z,6.51
2023-01-08T20:26:38.414Z,6.53
2023-01-08T20:29:05.780Z,6.55
2023-01-08T20:31:34.417Z,6.49
2023-01-08T20:34:04.181Z,6.51
2023-01-08T20:36:33.286Z,6.57
2023-01-08T20:39:05.852Z,6.59
2023-01-08T20:41:32.338Z,6.62
2023-01-08T20:43:58.820Z,6.58
2023-01-08T20:46:28.277Z,6.63
2023-01-08T20:48:59.817Z,6.62
2023-01-08T20:51:26.293Z,6.62
2023-01-08T20:53:52.736Z,6.63
2023-01-08T20:56:19.260Z,6.59
2023-01-08T20:58:47.451Z,6.64
2023-01-08T21:01:20.775Z,6.69
2023-01-08T21:03:49.162Z,6.72
2023-01-08T21:06:18.485Z,6.73
2023-01-08T21:08:46.920Z,6.75
2023-01-08T21:11:14.265Z,6.74
2023-01-08T21:13:41.576Z,6.74
2023-01-08T21:16:11.777Z,6.66
2023-01-08T21:18:40.503Z,6.63
2023-01-08T21:21:08.153Z,6.57
2023-01-08T21:23:34.652Z,6.53
2023-01-08T21:26:07.308Z,6.49
2023-01-08T21:28:34.345Z,6.47
2023-01-08T21:31:21.374Z,6.38
2023-01-08T21:33:49.128Z,6.43
2023-01-08T21:36:18.493Z,6.40
2023-01-08T21:38:45.621Z,6.33
2023-01-08T21:41:34.061Z,6.27
2023-01-08T21:44:19.639Z,6.22
2023-01-08T21:46:46.679Z,6.18
2023-01-08T21:49:13.213Z,6.16
2023-01-08T21:51:58.511Z,6.16
2023-01-08T21:54:25.069Z,6.08
2023-01-08T21:56:51.545Z,6.08
2023-01-08T21:59:18.028Z,6.08
2023-01-08T22:01:45.626Z,6.12
2023-01-08T22:04:12.315Z,6.12
2023-01-08T22:06:38.832Z,6.10
2023-01-08T22:09:05.259Z,6.11
2023-01-08T22:11:31.655Z,6.08
2023-01-08T22:13:58.811Z,6.08
2023-01-08T22:16:25.527Z,6.08
2023-01-08T22:18:52.157Z,6.06
2023-01-08T22:21:18.858Z,6.04
2023-01-08T22:23:45.355Z,5.99
2023-01-08T22:26:13.607Z,5.98
2023-01-08T22:28:40.309Z,5.99
2023-01-08T22:31:11.321Z,6.00
2023-01-08T22:33:39.499Z,6.02
2023-01-08T22:36:08.905Z,6.00
2023-01-08T22:38:35.815Z,6.01
2023-01-08T22:41:02.881Z,5.99
2023-01-08T22:43:29.324Z,5.97
2023-01-08T22:45:59.726Z,5.97
2023-01-08T22:48:26.938Z,5.94
2023-01-08T22:50:53.949Z,5.92
2023-01-08T22:53:20.500Z,5.93
2023-01-08T22:55:47.827Z,5.93
2023-01-08T22:58:15.781Z,5.90
2023-01-08T23:00:45.389Z,5.87
2023-01-08T23:03:13.128Z,5.91
2023-01-08T23:05:39.847Z,5.89
2023-01-08T23:08:07.636Z,5.88
2023-01-08T23:10:34.387Z,5.87
2023-01-08T23:13:00.778Z,5.86
2023-01-08T23:15:27.251Z,5.88
2023-01-08T23:17:53.657Z,5.87
2023-01-08T23:20:20.677Z,5.87
2023-01-08T23:22:48.509Z,5.94
2023-01-08T23:25:15.920Z,5.94
2023-01-08T23:27:44.080Z,5.93
2023-01-08T23:30:11.214Z,5.96
2023-01-08T23:32:37.612Z,5.99
2023-01-08T23:35:04.338Z,5.96
2023-01-08T23:37:33.778Z,6.00
2023-01-08T23:40:00.192Z,5.95
2023-01-08T23:42:28.726Z,5.89
2023-01-08T23:44:55.150Z,5.92
2023-01-08T23:47:21.560Z,5.88
2023-01-08T23:49:47.973Z,5.87
2023-01-08T23:52:17.484Z,5.85
2023-01-08T23:54:43.905Z,5.86
2023-01-08T23:57:10.355Z,5.88
2023-01-08T23:59:36.810Z,5.88
